sensor_id;sensor_type;location;lat;lon;timestamp;pressure;altitude;pressure_sealevel;temperature;humidity
63343;BME280;49465;57.664;39.686;2023-04-26T00:01:51;99479.09;;;15.63;54.92
63343;BME280;49465;57.664;39.686;2023-04-26T00:04:32;99483.34;;;15.92;53.19
63343;BME280;49465;57.664;39.686;2023-04-26T00:06:59;99470.88;;;15.66;55.30
63343;BME280;49465;57.664;39.686;2023-04-26T00:09:34;99475.56;;;15.72;55.01
63343;BME280;49465;57.664;39.686;2023-04-26T00:12:10;99471.31;;;15.61;55.42
63343;BME280;49465;57.664;39.686;2023-04-26T00:14:42;99461.97;;;15.49;55.53
63343;BME280;49465;57.664;39.686;2023-04-26T00:17:22;99459.09;;;15.60;55.73
63343;BME280;49465;57.664;39.686;2023-04-26T00:19:52;99460.28;;;15.48;56.58
63343;BME280;49465;57.664;39.686;2023-04-26T00:22:22;99452.69;;;15.45;55.85
63343;BME280;49465;57.664;39.686;2023-04-26T00:24:49;99453.56;;;15.54;55.15
63343;BME280;49465;57.664;39.686;2023-04-26T00:27:22;99443.69;;;15.38;57.25
63343;BME280;49465;57.664;39.686;2023-04-26T00:29:54;99441.72;;;15.40;56.87
63343;BME280;49465;57.664;39.686;2023-04-26T00:32:24;99435.91;;;15.36;56.25
63343;BME280;49465;57.664;39.686;2023-04-26T00:34:55;99431.91;;;15.32;56.36
63343;BME280;49465;57.664;39.686;2023-04-26T00:37:22;99424.72;;;15.25;56.87
63343;BME280;49465;57.664;39.686;2023-04-26T00:39:53;99421.00;;;15.27;56.94
63343;BME280;49465;57.664;39.686;2023-04-26T00:42:31;99424.22;;;15.39;56.38
63343;BME280;49465;57.664;39.686;2023-04-26T00:45:03;99414.28;;;15.33;56.61
63343;BME280;49465;57.664;39.686;2023-04-26T00:47:33;99409.81;;;15.33;56.58
63343;BME280;49465;57.664;39.686;2023-04-26T00:50:12;99413.81;;;15.37;55.69
63343;BME280;49465;57.664;39.686;2023-04-26T00:52:46;99408.22;;;15.40;56.92
63343;BME280;49465;57.664;39.686;2023-04-26T00:55:21;99402.78;;;15.42;55.91
63343;BME280;49465;57.664;39.686;2023-04-26T00:57:48;99391.69;;;15.38;56.08
63343;BME280;49465;57.664;39.686;2023-04-26T01:00:17;99390.03;;;15.37;56.25
63343;BME280;49465;57.664;39.686;2023-04-26T01:02:47;99383.69;;;15.30;56.57
63343;BME280;49465;57.664;39.686;2023-04-26T01:05:27;99384.88;;;15.54;55.31
63343;BME280;49465;57.664;39.686;2023-04-26T01:07:54;99372.09;;;15.23;57.24
63343;BME280;49465;57.664;39.686;2023-04-26T01:10:32;99373.66;;;15.34;56.33
63343;BME280;49465;57.664;39.686;2023-04-26T01:13:02;99364.47;;;15.20;57.41
63343;BME280;49465;57.664;39.686;2023-04-26T01:15:40;99359.22;;;15.46;55.92
63343;BME280;49465;57.664;39.686;2023-04-26T01:18:12;99358.44;;;15.28;56.84
63343;BME280;49465;57.664;39.686;2023-04-26T01:20:44;99357.44;;;15.11;57.38
63343;BME280;49465;57.664;39.686;2023-04-26T01:23:23;99347.94;;;15.36;56.09
63343;BME280;49465;57.664;39.686;2023-04-26T01:25:55;99349.69;;;15.27;57.21
63343;BME280;49465;57.664;39.686;2023-04-26T01:28:30;99338.59;;;15.23;57.61
63343;BME280;49465;57.664;39.686;2023-04-26T01:30:59;99334.88;;;15.16;57.79
63343;BME280;49465;57.664;39.686;2023-04-26T01:33:34;99324.03;;;15.19;56.68
63343;BME280;49465;57.664;39.686;2023-04-26T01:36:10;99321.22;;;15.21;57.32
63343;BME280;49465;57.664;39.686;2023-04-26T01:38:39;99327.19;;;15.05;57.80
63343;BME280;49465;57.664;39.686;2023-04-26T01:41:15;99313.09;;;15.14;57.87
63343;BME280;49465;57.664;39.686;2023-04-26T01:43:47;99316.56;;;15.15;57.20
63343;BME280;49465;57.664;39.686;2023-04-26T01:46:16;99315.34;;;15.09;57.48
63343;BME280;49465;57.664;39.686;2023-04-26T01:48:44;99313.03;;;15.06;57.74
63343;BME280;49465;57.664;39.686;2023-04-26T01:51:13;99306.41;;;15.02;57.93
63343;BME280;49465;57.664;39.686;2023-04-26T01:53:42;99300.88;;;14.95;58.29
63343;BME280;49465;57.664;39.686;2023-04-26T01:56:11;99302.94;;;15.01;58.88
63343;BME280;49465;57.664;39.686;2023-04-26T01:58:40;99291.31;;;14.94;58.63
63343;BME280;49465;57.664;39.686;2023-04-26T02:01:09;99293.94;;;14.94;58.59
63343;BME280;49465;57.664;39.686;2023-04-26T02:03:45;99291.91;;;15.06;58.39
63343;BME280;49465;57.664;39.686;2023-04-26T02:06:19;99285.41;;;15.00;58.45
63343;BME280;49465;57.664;39.686;2023-04-26T02:08:49;99279.09;;;15.11;57.83
63343;BME280;49465;57.664;39.686;2023-04-26T02:11:21;99275.25;;;15.06;58.68
63343;BME280;49465;57.664;39.686;2023-04-26T02:13:48;99270.41;;;15.01;58.60
63343;BME280;49465;57.664;39.686;2023-04-26T02:16:17;99271.53;;;14.98;58.17
63343;BME280;49465;57.664;39.686;2023-04-26T02:18:49;99259.69;;;15.02;58.57
63343;BME280;49465;57.664;39.686;2023-04-26T02:21:21;99261.38;;;15.03;58.39
63343;BME280;49465;57.664;39.686;2023-04-26T02:23:51;99256.84;;;15.14;57.50
63343;BME280;49465;57.664;39.686;2023-04-26T02:26:20;99246.44;;;14.94;59.43
63343;BME280;49465;57.664;39.686;2023-04-26T02:28:49;99250.50;;;14.89;59.28
63343;BME280;49465;57.664;39.686;2023-04-26T02:31:21;99240.16;;;14.95;59.12
63343;BME280;49465;57.664;39.686;2023-04-26T02:33:55;99235.81;;;15.04;58.22
63343;BME280;49465;57.664;39.686;2023-04-26T02:36:25;99235.13;;;15.02;59.18
63343;BME280;49465;57.664;39.686;2023-04-26T02:38:59;99222.22;;;14.99;59.59
63343;BME280;49465;57.664;39.686;2023-04-26T02:41:31;99228.13;;;14.93;59.67
63343;BME280;49465;57.664;39.686;2023-04-26T02:44:08;99216.72;;;15.62;55.00
63343;BME280;49465;57.664;39.686;2023-04-26T02:46:37;99213.19;;;15.01;58.66
63343;BME280;49465;57.664;39.686;2023-04-26T03:01:54;99205.78;;;14.87;62.31
63343;BME280;49465;57.664;39.686;2023-04-26T03:04:26;99203.31;;;15.03;60.93
63343;BME280;49465;57.664;39.686;2023-04-26T03:06:58;99207.28;;;15.08;60.00
63343;BME280;49465;57.664;39.686;2023-04-26T03:09:27;99193.41;;;15.06;60.60
63343;BME280;49465;57.664;39.686;2023-04-26T03:12:00;99197.94;;;15.13;60.36
63343;BME280;49465;57.664;39.686;2023-04-26T03:14:30;99195.72;;;15.09;59.89
63343;BME280;49465;57.664;39.686;2023-04-26T03:16:56;99187.09;;;14.98;60.50
63343;BME280;49465;57.664;39.686;2023-04-26T03:19:22;99180.50;;;15.02;60.04
63343;BME280;49465;57.664;39.686;2023-04-26T03:22:05;99174.84;;;15.15;59.58
63343;BME280;49465;57.664;39.686;2023-04-26T03:24:36;99174.94;;;15.06;60.70
63343;BME280;49465;57.664;39.686;2023-04-26T03:27:07;99168.72;;;15.15;59.89
63343;BME280;49465;57.664;39.686;2023-04-26T03:29:39;99161.47;;;15.17;59.86
63343;BME280;49465;57.664;39.686;2023-04-26T03:32:08;99154.78;;;15.05;60.38
63343;BME280;49465;57.664;39.686;2023-04-26T03:34:40;99153.53;;;15.17;60.64
63343;BME280;49465;57.664;39.686;2023-04-26T03:37:07;99146.56;;;15.08;60.49
63343;BME280;49465;57.664;39.686;2023-04-26T03:39:46;99141.44;;;15.06;60.78
63343;BME280;49465;57.664;39.686;2023-04-26T03:42:24;99145.31;;;15.20;60.39
63343;BME280;49465;57.664;39.686;2023-04-26T03:44:59;99142.38;;;15.23;60.38
63343;BME280;49465;57.664;39.686;2023-04-26T03:47:37;99132.50;;;15.25;59.74
63343;BME280;49465;57.664;39.686;2023-04-26T03:50:09;99130.53;;;15.27;59.52
63343;BME280;49465;57.664;39.686;2023-04-26T03:52:41;99130.00;;;15.23;60.65
63343;BME280;49465;57.664;39.686;2023-04-26T03:55:16;99128.84;;;15.26;60.29
63343;BME280;49465;57.664;39.686;2023-04-26T03:57:48;99133.50;;;15.32;59.89
63343;BME280;49465;57.664;39.686;2023-04-26T04:00:18;99130.41;;;15.11;61.11
63343;BME280;49465;57.664;39.686;2023-04-26T04:02:55;99133.97;;;15.28;59.62
63343;BME280;49465;57.664;39.686;2023-04-26T04:05:27;99124.84;;;15.14;61.07
63343;BME280;49465;57.664;39.686;2023-04-26T04:07:58;99124.38;;;15.27;60.48
63343;BME280;49465;57.664;39.686;2023-04-26T04:10:33;99121.63;;;15.36;59.82
63343;BME280;49465;57.664;39.686;2023-04-26T04:13:06;99116.44;;;15.18;60.52
63343;BME280;49465;57.664;39.686;2023-04-26T04:15:35;99118.13;;;15.28;60.73
63343;BME280;49465;57.664;39.686;2023-04-26T04:18:10;99118.72;;;15.48;59.07
63343;BME280;49465;57.664;39.686;2023-04-26T04:20:43;99108.25;;;15.30;62.31
63343;BME280;49465;57.664;39.686;2023-04-26T04:23:15;99108.28;;;15.38;59.98
63343;BME280;49465;57.664;39.686;2023-04-26T04:25:47;99107.94;;;15.33;60.14
63343;BME280;49465;57.664;39.686;2023-04-26T04:28:19;99100.69;;;15.35;60.60
63343;BME280;49465;57.664;39.686;2023-04-26T04:30:53;99089.75;;;15.30;60.77
63343;BME280;49465;57.664;39.686;2023-04-26T04:33:28;99097.91;;;15.45;59.52
63343;BME280;49465;57.664;39.686;2023-04-26T04:36:01;99092.94;;;15.41;60.03
63343;BME280;49465;57.664;39.686;2023-04-26T04:38:36;99086.19;;;15.47;59.99
63343;BME280;49465;57.664;39.686;2023-04-26T04:41:09;99074.41;;;15.25;61.31
63343;BME280;49465;57.664;39.686;2023-04-26T04:43:43;99079.72;;;15.33;60.67
63343;BME280;49465;57.664;39.686;2023-04-26T04:46:12;99071.97;;;15.40;60.24
63343;BME280;49465;57.664;39.686;2023-04-26T04:48:41;99065.88;;;15.39;60.80
63343;BME280;49465;57.664;39.686;2023-04-26T04:51:10;99062.22;;;15.40;60.59
63343;BME280;49465;57.664;39.686;2023-04-26T04:53:37;99067.50;;;15.40;60.86
63343;BME280;49465;57.664;39.686;2023-04-26T04:56:06;99060.25;;;15.42;60.77
63343;BME280;49465;57.664;39.686;2023-04-26T04:58:36;99059.00;;;15.55;59.89
63343;BME280;49465;57.664;39.686;2023-04-26T05:01:17;99066.56;;;15.58;60.61
63343;BME280;49465;57.664;39.686;2023-04-26T05:03:45;99062.28;;;15.57;60.84
63343;BME280;49465;57.664;39.686;2023-04-26T05:06:29;99055.84;;;15.59;60.32
63343;BME280;49465;57.664;39.686;2023-04-26T05:09:02;99059.16;;;15.61;60.69
63343;BME280;49465;57.664;39.686;2023-04-26T05:11:34;99047.91;;;15.51;60.56
63343;BME280;49465;57.664;39.686;2023-04-26T05:14:10;99048.28;;;15.56;60.56
63343;BME280;49465;57.664;39.686;2023-04-26T05:16:38;99045.13;;;15.53;61.05
63343;BME280;49465;57.664;39.686;2023-04-26T05:19:10;99042.97;;;15.56;61.74
63343;BME280;49465;57.664;39.686;2023-04-26T05:21:49;99043.28;;;15.53;60.96
63343;BME280;49465;57.664;39.686;2023-04-26T05:24:28;99038.03;;;15.61;60.89
63343;BME280;49465;57.664;39.686;2023-04-26T05:27:03;99046.50;;;15.73;60.24
63343;BME280;49465;57.664;39.686;2023-04-26T05:29:33;99036.03;;;15.63;60.55
63343;BME280;49465;57.664;39.686;2023-04-26T05:32:05;99033.75;;;15.69;60.59
63343;BME280;49465;57.664;39.686;2023-04-26T05:34:35;99027.66;;;15.68;60.16
63343;BME280;49465;57.664;39.686;2023-04-26T05:37:10;99031.28;;;15.67;60.70
63343;BME280;49465;57.664;39.686;2023-04-26T05:39:38;99036.59;;;15.75;60.09
63343;BME280;49465;57.664;39.686;2023-04-26T05:42:13;99026.03;;;15.84;60.21
63343;BME280;49465;57.664;39.686;2023-04-26T05:44:45;99022.41;;;15.76;60.13
63343;BME280;49465;57.664;39.686;2023-04-26T05:47:14;99019.78;;;15.76;60.41
63343;BME280;49465;57.664;39.686;2023-04-26T05:49:43;99019.25;;;15.73;60.63
63343;BME280;49465;57.664;39.686;2023-04-26T05:52:10;99022.25;;;15.78;60.62
63343;BME280;49465;57.664;39.686;2023-04-26T05:54:39;99021.91;;;15.89;60.03
63343;BME280;49465;57.664;39.686;2023-04-26T05:57:08;99015.31;;;15.85;60.60
63343;BME280;49465;57.664;39.686;2023-04-26T05:59:39;99016.81;;;15.96;60.85
63343;BME280;49465;57.664;39.686;2023-04-26T06:02:06;99014.00;;;15.89;60.35
63343;BME280;49465;57.664;39.686;2023-04-26T06:04:36;99014.00;;;15.89;60.56
63343;BME280;49465;57.664;39.686;2023-04-26T06:07:11;99013.31;;;15.87;60.76
63343;BME280;49465;57.664;39.686;2023-04-26T06:09:39;99015.81;;;15.89;60.66
63343;BME280;49465;57.664;39.686;2023-04-26T06:12:09;99007.06;;;16.05;61.08
63343;BME280;49465;57.664;39.686;2023-04-26T06:14:36;99005.09;;;15.98;60.30
63343;BME280;49465;57.664;39.686;2023-04-26T06:17:02;99006.91;;;15.98;60.64
63343;BME280;49465;57.664;39.686;2023-04-26T06:19:34;99009.88;;;16.11;60.02
63343;BME280;49465;57.664;39.686;2023-04-26T06:22:06;99008.22;;;16.02;60.69
63343;BME280;49465;57.664;39.686;2023-04-26T06:24:36;99003.59;;;16.04;60.35
63343;BME280;49465;57.664;39.686;2023-04-26T06:27:02;98993.38;;;16.09;60.27
63343;BME280;49465;57.664;39.686;2023-04-26T06:29:34;99002.94;;;16.18;60.46
63343;BME280;49465;57.664;39.686;2023-04-26T06:32:00;98999.13;;;16.13;60.00
63343;BME280;49465;57.664;39.686;2023-04-26T06:34:32;98994.00;;;16.19;61.00
63343;BME280;49465;57.664;39.686;2023-04-26T06:37:03;98990.06;;;16.15;60.39
63343;BME280;49465;57.664;39.686;2023-04-26T06:39:30;98990.03;;;16.07;60.92
63343;BME280;49465;57.664;39.686;2023-04-26T06:41:56;98989.72;;;16.10;61.07
63343;BME280;49465;57.664;39.686;2023-04-26T06:44:22;98992.34;;;16.18;60.60
63343;BME280;49465;57.664;39.686;2023-04-26T06:46:52;98990.03;;;16.24;60.48
63343;BME280;49465;57.664;39.686;2023-04-26T06:49:18;98989.56;;;16.12;61.28
63343;BME280;49465;57.664;39.686;2023-04-26T06:51:48;98983.75;;;16.25;61.02
63343;BME280;49465;57.664;39.686;2023-04-26T06:54:18;98984.56;;;16.33;60.96
63343;BME280;49465;57.664;39.686;2023-04-26T06:56:45;98979.13;;;16.35;60.61
63343;BME280;49465;57.664;39.686;2023-04-26T06:59:11;98981.91;;;16.41;60.27
63343;BME280;49465;57.664;39.686;2023-04-26T07:01:38;98980.91;;;16.34;60.94
63343;BME280;49465;57.664;39.686;2023-04-26T07:04:05;98977.97;;;16.29;61.49
63343;BME280;49465;57.664;39.686;2023-04-26T07:06:38;98978.06;;;16.52;60.08
63343;BME280;49465;57.664;39.686;2023-04-26T12:55:16;98907.97;;;19.37;53.05
63343;BME280;49465;57.664;39.686;2023-04-26T12:57:44;98911.44;;;19.38;53.65
63343;BME280;49465;57.664;39.686;2023-04-26T13:00:16;98907.34;;;19.56;53.07
63343;BME280;49465;57.664;39.686;2023-04-26T13:02:48;98908.94;;;19.51;53.20
63343;BME280;49465;57.664;39.686;2023-04-26T13:05:20;98916.41;;;19.62;53.08
63343;BME280;49465;57.664;39.686;2023-04-26T13:07:53;98911.28;;;19.61;52.78
63343;BME280;49465;57.664;39.686;2023-04-26T13:10:22;98898.94;;;19.53;52.91
63343;BME280;49465;57.664;39.686;2023-04-26T13:12:53;98912.97;;;19.68;53.31
63343;BME280;49465;57.664;39.686;2023-04-26T13:15:20;98905.75;;;19.62;53.37
63343;BME280;49465;57.664;39.686;2023-04-26T13:17:50;98907.66;;;19.68;53.28
63343;BME280;49465;57.664;39.686;2023-04-26T13:20:24;98904.16;;;19.89;52.54
63343;BME280;49465;57.664;39.686;2023-04-26T13:22:56;98903.59;;;19.94;52.82
63343;BME280;49465;57.664;39.686;2023-04-26T13:25:27;98908.28;;;19.92;52.77
63343;BME280;49465;57.664;39.686;2023-04-26T13:27:58;98912.41;;;19.94;52.92
63343;BME280;49465;57.664;39.686;2023-04-26T13:30:28;98914.28;;;20.01;52.67
63343;BME280;49465;57.664;39.686;2023-04-26T13:32:59;98922.25;;;20.01;53.06
63343;BME280;49465;57.664;39.686;2023-04-26T13:35:31;98913.09;;;20.03;52.72
63343;BME280;49465;57.664;39.686;2023-04-26T13:54:36;98912.56;;;18.77;56.56
63343;BME280;49465;57.664;39.686;2023-04-26T13:57:07;98925.06;;;19.13;55.16
63343;BME280;49465;57.664;39.686;2023-04-26T13:59:34;98920.78;;;19.12;54.57
63343;BME280;49465;57.664;39.686;2023-04-26T14:02:00;98921.78;;;19.11;54.81
63343;BME280;49465;57.664;39.686;2023-04-26T14:04:26;98920.16;;;19.10;54.68
63343;BME280;49465;57.664;39.686;2023-04-26T14:06:53;98919.69;;;19.06;54.28
63343;BME280;49465;57.664;39.686;2023-04-26T14:09:19;98919.81;;;18.98;54.52
63343;BME280;49465;57.664;39.686;2023-04-26T14:11:46;98925.69;;;18.93;54.35
63343;BME280;49465;57.664;39.686;2023-04-26T14:14:15;98921.31;;;18.86;54.37
63343;BME280;49465;57.664;39.686;2023-04-26T14:16:41;98924.94;;;18.85;54.35
63343;BME280;49465;57.664;39.686;2023-04-26T14:19:08;98934.84;;;18.76;54.62
63343;BME280;49465;57.664;39.686;2023-04-26T14:21:35;98936.84;;;18.74;54.57
63343;BME280;49465;57.664;39.686;2023-04-26T14:24:01;98937.56;;;18.68;54.69
63343;BME280;49465;57.664;39.686;2023-04-26T14:26:28;98927.59;;;18.70;54.14
63343;BME280;49465;57.664;39.686;2023-04-26T14:28:59;98938.13;;;18.78;54.47
63343;BME280;49465;57.664;39.686;2023-04-26T14:31:25;98936.28;;;18.64;54.67
63343;BME280;49465;57.664;39.686;2023-04-26T14:33:53;98934.84;;;18.61;55.26
63343;BME280;49465;57.664;39.686;2023-04-26T14:36:20;98941.81;;;18.62;55.08
63343;BME280;49465;57.664;39.686;2023-04-26T14:38:46;98939.50;;;18.59;54.70
63343;BME280;49465;57.664;39.686;2023-04-26T14:41:17;98949.56;;;18.64;54.38
63343;BME280;49465;57.664;39.686;2023-04-26T14:43:45;98942.63;;;18.63;54.34
63343;BME280;49465;57.664;39.686;2023-04-26T14:46:14;98945.63;;;18.60;55.10
63343;BME280;49465;57.664;39.686;2023-04-26T14:48:43;98943.63;;;18.47;54.77
63343;BME280;49465;57.664;39.686;2023-04-26T14:51:10;98943.41;;;18.48;54.53
63343;BME280;49465;57.664;39.686;2023-04-26T14:53:37;98948.28;;;18.45;54.99
63343;BME280;49465;57.664;39.686;2023-04-26T14:56:11;98957.88;;;18.46;55.02
63343;BME280;49465;57.664;39.686;2023-04-26T14:58:41;98949.53;;;18.34;55.57
63343;BME280;49465;57.664;39.686;2023-04-26T15:01:08;98959.81;;;18.37;55.59
63343;BME280;49465;57.664;39.686;2023-04-26T15:03:35;98951.84;;;18.37;55.42
63343;BME280;49465;57.664;39.686;2023-04-26T15:06:02;98958.88;;;18.30;55.77
63343;BME280;49465;57.664;39.686;2023-04-26T15:08:32;98956.03;;;18.46;55.35
63343;BME280;49465;57.664;39.686;2023-04-26T15:10:58;98957.88;;;18.31;55.79
63343;BME280;49465;57.664;39.686;2023-04-26T15:13:25;98958.59;;;18.25;56.03
63343;BME280;49465;57.664;39.686;2023-04-26T15:16:00;98958.59;;;18.25;56.23
63343;BME280;49465;57.664;39.686;2023-04-26T15:18:35;98968.66;;;18.44;55.40
63343;BME280;49465;57.664;39.686;2023-04-26T15:21:17;98963.28;;;18.37;55.43
63343;BME280;49465;57.664;39.686;2023-04-26T15:23:52;98973.44;;;18.34;55.96
63343;BME280;49465;57.664;39.686;2023-04-26T15:26:34;98976.38;;;18.39;55.79
63343;BME280;49465;57.664;39.686;2023-04-26T15:29:09;98981.13;;;18.29;55.91
63343;BME280;49465;57.664;39.686;2023-04-26T15:31:47;98987.50;;;18.34;55.81
63343;BME280;49465;57.664;39.686;2023-04-26T15:34:25;98992.97;;;18.18;56.06
63343;BME280;49465;57.664;39.686;2023-04-26T15:37:01;98996.44;;;18.18;56.12
63343;BME280;49465;57.664;39.686;2023-04-26T15:39:32;99000.13;;;18.17;55.82
63343;BME280;49465;57.664;39.686;2023-04-26T15:42:11;98996.22;;;18.05;56.36
63343;BME280;49465;57.664;39.686;2023-04-26T15:44:44;99009.19;;;18.23;55.86
63343;BME280;49465;57.664;39.686;2023-04-26T15:47:13;99001.06;;;18.02;56.04
63343;BME280;49465;57.664;39.686;2023-04-26T15:49:53;99000.50;;;18.29;55.00
63343;BME280;49465;57.664;39.686;2023-04-26T15:52:26;99015.91;;;18.11;56.00
63343;BME280;49465;57.664;39.686;2023-04-26T15:54:55;99005.66;;;18.08;56.59
63343;BME280;49465;57.664;39.686;2023-04-26T15:57:27;99013.16;;;18.04;56.58
63343;BME280;49465;57.664;39.686;2023-04-26T16:00:01;99016.09;;;18.09;56.92
63343;BME280;49465;57.664;39.686;2023-04-26T16:02:33;99017.16;;;18.00;56.94
63343;BME280;49465;57.664;39.686;2023-04-26T16:05:02;99008.47;;;17.83;56.86
63343;BME280;49465;57.664;39.686;2023-04-26T16:07:32;99011.56;;;17.95;56.46
63343;BME280;49465;57.664;39.686;2023-04-26T16:10:02;99017.81;;;17.71;57.55
63343;BME280;49465;57.664;39.686;2023-04-26T16:12:33;99031.50;;;17.83;57.75
63343;BME280;49465;57.664;39.686;2023-04-26T16:15:08;99028.72;;;17.84;57.76
63343;BME280;49465;57.664;39.686;2023-04-26T16:17:37;99019.84;;;18.53;52.71
63343;BME280;49465;57.664;39.686;2023-04-26T16:20:07;99028.91;;;17.74;57.02
63343;BME280;49465;57.664;39.686;2023-04-26T16:22:43;99031.97;;;17.63;57.33
63343;BME280;49465;57.664;39.686;2023-04-26T16:25:16;99040.88;;;17.70;58.14
63343;BME280;49465;57.664;39.686;2023-04-26T16:27:51;99044.88;;;17.66;58.59
63343;BME280;49465;57.664;39.686;2023-04-26T16:30:36;99041.69;;;17.71;58.31
63343;BME280;49465;57.664;39.686;2023-04-26T16:33:05;99050.50;;;17.63;58.08
63343;BME280;49465;57.664;39.686;2023-04-26T16:35:37;99054.56;;;17.51;58.28
63343;BME280;49465;57.664;39.686;2023-04-26T16:38:09;99045.47;;;17.45;58.35
63343;BME280;49465;57.664;39.686;2023-04-26T16:40:38;99051.94;;;17.43;58.12
63343;BME280;49465;57.664;39.686;2023-04-26T16:43:05;99058.22;;;17.42;58.38
63343;BME280;49465;57.664;39.686;2023-04-26T16:45:33;99058.56;;;17.38;58.28
63343;BME280;49465;57.664;39.686;2023-04-26T18:11:10;99128.84;;;15.26;66.80
63343;BME280;49465;57.664;39.686;2023-04-26T18:13:37;99122.03;;;15.50;64.72
63343;BME280;49465;57.664;39.686;2023-04-26T18:16:05;99133.13;;;15.61;64.41
63343;BME280;49465;57.664;39.686;2023-04-26T18:18:32;99135.53;;;15.73;63.75
63343;BME280;49465;57.664;39.686;2023-04-26T18:21:01;99141.00;;;15.79;63.03
63343;BME280;49465;57.664;39.686;2023-04-26T18:23:34;99139.53;;;15.85;62.85
63343;BME280;49465;57.664;39.686;2023-04-26T18:26:05;99144.38;;;15.98;63.36
63343;BME280;49465;57.664;39.686;2023-04-26T18:28:31;99147.00;;;15.90;63.10
63343;BME280;49465;57.664;39.686;2023-04-26T18:30:58;99155.59;;;15.92;63.25
63343;BME280;49465;57.664;39.686;2023-04-26T18:33:39;99153.47;;;16.12;62.70
63343;BME280;49465;57.664;39.686;2023-04-26T18:36:06;99151.63;;;15.96;62.34
63343;BME280;49465;57.664;39.686;2023-04-26T18:38:33;99152.59;;;15.95;62.63
63343;BME280;49465;57.664;39.686;2023-04-26T18:40:59;99156.56;;;15.99;61.95
63343;BME280;49465;57.664;39.686;2023-04-26T18:43:25;99152.59;;;15.95;63.01
63343;BME280;49465;57.664;39.686;2023-04-26T18:45:52;99155.25;;;15.95;62.31
63343;BME280;49465;57.664;39.686;2023-04-26T18:48:18;99151.13;;;15.92;62.73
63343;BME280;49465;57.664;39.686;2023-04-26T18:50:51;99155.63;;;16.08;62.65
63343;BME280;49465;57.664;39.686;2023-04-26T18:53:18;99151.97;;;16.01;61.43
63343;BME280;49465;57.664;39.686;2023-04-26T18:55:44;99152.28;;;15.90;62.08
63343;BME280;49465;57.664;39.686;2023-04-26T18:58:11;99157.38;;;15.91;62.38
63343;BME280;49465;57.664;39.686;2023-04-26T19:00:42;99166.69;;;16.04;62.38
63343;BME280;49465;57.664;39.686;2023-04-26T19:03:11;99163.81;;;15.89;61.98
63343;BME280;49465;57.664;39.686;2023-04-26T19:05:41;99171.63;;;16.07;62.11
63343;BME280;49465;57.664;39.686;2023-04-26T19:08:08;99165.81;;;15.95;61.84
63343;BME280;49465;57.664;39.686;2023-04-26T19:10:37;99172.41;;;15.91;61.79
63343;BME280;49465;57.664;39.686;2023-04-26T19:13:04;99170.44;;;15.93;61.55
63343;BME280;49465;57.664;39.686;2023-04-26T19:15:33;99172.94;;;16.02;62.72
63343;BME280;49465;57.664;39.686;2023-04-26T19:18:03;99173.91;;;15.93;61.60
63343;BME280;49465;57.664;39.686;2023-04-26T19:20:30;99165.00;;;15.94;61.56
63343;BME280;49465;57.664;39.686;2023-04-26T19:22:56;99174.09;;;15.92;61.99
63343;BME280;49465;57.664;39.686;2023-04-26T19:25:26;99178.25;;;16.02;62.03
63343;BME280;49465;57.664;39.686;2023-04-26T19:27:57;99176.41;;;15.95;62.41
63343;BME280;49465;57.664;39.686;2023-04-26T19:30:24;99180.31;;;15.82;61.69
63343;BME280;49465;57.664;39.686;2023-04-26T19:32:50;99177.31;;;15.77;61.79
63343;BME280;49465;57.664;39.686;2023-04-26T19:35:17;99176.00;;;15.81;60.71
63343;BME280;49465;57.664;39.686;2023-04-26T19:37:43;99186.59;;;15.81;60.76
63343;BME280;49465;57.664;39.686;2023-04-26T19:40:09;99182.09;;;15.74;61.78
63343;BME280;49465;57.664;39.686;2023-04-26T19:42:37;99183.91;;;15.73;61.49
63343;BME280;49465;57.664;39.686;2023-04-26T19:45:03;99179.59;;;15.72;61.11
63343;BME280;49465;57.664;39.686;2023-04-26T19:47:33;99190.41;;;15.87;60.96
63343;BME280;49465;57.664;39.686;2023-04-26T19:49:59;99189.03;;;15.75;61.40
63343;BME280;49465;57.664;39.686;2023-04-26T19:52:26;99190.16;;;15.72;61.63
63343;BME280;49465;57.664;39.686;2023-04-26T19:54:53;99188.47;;;15.63;62.05
63343;BME280;49465;57.664;39.686;2023-04-26T19:57:22;99187.97;;;15.68;61.24
63343;BME280;49465;57.664;39.686;2023-04-26T19:59:52;99195.38;;;15.64;61.84
63343;BME280;49465;57.664;39.686;2023-04-26T20:02:18;99191.09;;;15.63;62.06
63343;BME280;49465;57.664;39.686;2023-04-26T20:04:44;99198.22;;;15.62;61.90
63343;BME280;49465;57.664;39.686;2023-04-26T20:07:20;99204.75;;;15.76;61.25
63343;BME280;49465;57.664;39.686;2023-04-26T20:09:50;99211.16;;;15.74;62.01
63343;BME280;49465;57.664;39.686;2023-04-26T20:12:20;99210.22;;;15.57;61.75
63343;BME280;49465;57.664;39.686;2023-04-26T20:14:50;99223.00;;;15.70;61.97
63343;BME280;49465;57.664;39.686;2023-04-26T20:17:19;99213.66;;;15.49;62.47
63343;BME280;49465;57.664;39.686;2023-04-26T20:19:46;99215.63;;;15.47;62.11
63343;BME280;49465;57.664;39.686;2023-04-26T20:22:15;99218.41;;;15.46;62.39
63343;BME280;49465;57.664;39.686;2023-04-26T20:24:42;99221.59;;;15.49;61.69
63343;BME280;49465;57.664;39.686;2023-04-26T20:27:08;99221.06;;;15.46;62.36
63343;BME280;49465;57.664;39.686;2023-04-26T20:29:44;99223.03;;;15.43;62.39
63343;BME280;49465;57.664;39.686;2023-04-26T20:32:11;99226.50;;;15.44;62.37
63343;BME280;49465;57.664;39.686;2023-04-26T20:34:37;99232.78;;;15.43;62.90
63343;BME280;49465;57.664;39.686;2023-04-26T20:37:06;99226.34;;;15.46;62.64
63343;BME280;49465;57.664;39.686;2023-04-26T20:39:32;99241.31;;;15.37;62.45
63343;BME280;49465;57.664;39.686;2023-04-26T20:42:10;99239.25;;;15.49;62.35
63343;BME280;49465;57.664;39.686;2023-04-26T20:44:36;99239.84;;;15.42;61.83
63343;BME280;49465;57.664;39.686;2023-04-26T20:47:03;99243.44;;;15.33;62.65